Time;durP1;ratioP1;P1;durP2;ratioP2;P2;SDS_P1;SDS_P2;PMS_P1;PMS_P2;Temp;Humidity;BMP_temperature;BMP_pressure;BME280_temperature;BME280_humidity;BME280_pressure;Samples;Min_cycle;Max_cycle;Signal;HPM_P1;HPM_P2
2022/04/12 00:01:53;;;;;;;;;;;6.70;99.90;;;;;;5082288;28;19924;-58
2022/04/12 00:04:19;;;;;;;;;;;6.80;99.90;;;;;;5080536;28;20402;-57
2022/04/12 00:06:46;;;;;;;;;;;6.70;99.90;;;;;;5092822;28;19928;-57
2022/04/12 00:09:13;;;;;;;;;;;6.70;99.90;;;;;;5090969;28;19994;-58
2022/04/12 00:11:42;;;;;;;;;;;6.70;99.90;;;;;;5093586;28;20015;-57
2022/04/12 00:14:10;;;;;;;;;;;6.70;99.90;;;;;;5081020;28;19924;-57
2022/04/12 00:16:37;;;;;;;;;;;6.70;99.90;;;;;;5085987;28;19931;-57
2022/04/12 00:19:03;;;;;;;;;;;6.60;99.90;;;;;;5089634;28;19948;-57
2022/04/12 00:21:30;;;;;;;;;;;6.70;99.90;;;;;;5080719;28;20290;-57
2022/04/12 00:23:57;;;;;;;;;;;6.80;99.90;;;;;;5092562;28;19969;-58
2022/04/12 00:26:23;;;;;;;;;;;6.70;99.90;;;;;;5084047;28;19969;-57
2022/04/12 00:28:50;;;;;;;;;;;6.60;99.90;;;;;;5089698;28;20340;-57
2022/04/12 00:31:18;;;;;;;;;;;6.60;99.90;;;;;;5082913;28;19924;-57
2022/04/12 00:33:45;;;;;;;;;;;6.50;99.90;;;;;;5086629;28;19985;-57
2022/04/12 00:36:12;;;;;;;;;;;6.40;99.90;;;;;;5085229;28;19924;-57
2022/04/12 00:38:40;;;;;;;;;;;6.30;99.90;;;;;;5085600;28;20309;-57
2022/04/12 00:41:08;;;;;;;;;;;6.20;99.90;;;;;;5089080;28;19932;-58
2022/04/12 00:43:36;;;;;;;;;;;6.20;99.90;;;;;;5089902;28;19924;-57
2022/04/12 00:46:03;;;;;;;;;;;6.10;99.90;;;;;;5086949;28;19924;-57
2022/04/12 00:48:32;;;;;;;;;;;6.10;99.90;;;;;;5085232;28;19928;-57
2022/04/12 00:50:59;;;;;;;;;;;6.00;99.90;;;;;;5088994;28;20019;-57
2022/04/12 00:53:26;;;;;;;;;;;6.00;99.90;;;;;;5081537;28;19928;-59
2022/04/12 00:55:53;;;;;;;;;;;5.90;99.90;;;;;;5090488;28;19932;-57
2022/04/12 00:58:20;;;;;;;;;;;5.90;99.90;;;;;;5084638;28;19925;-58
2022/04/12 01:00:48;;;;;;;;;;;5.90;99.90;;;;;;5091018;28;20357;-57
2022/04/12 01:03:15;;;;;;;;;;;5.90;99.90;;;;;;5080412;28;19974;-57
2022/04/12 01:05:43;;;;;;;;;;;5.90;99.90;;;;;;5088371;28;20396;-57
2022/04/12 01:08:10;;;;;;;;;;;5.80;99.90;;;;;;5081591;28;19977;-57
2022/04/12 01:10:37;;;;;;;;;;;6.10;99.90;;;;;;5087942;28;19932;-57
2022/04/12 01:13:23;;;;;;;;;;;6.20;99.90;;;;;;5089672;28;19932;-57
2022/04/12 01:15:50;;;;;;;;;;;6.40;99.90;;;;;;5081540;28;19927;-57
2022/04/12 01:18:17;;;;;;;;;;;6.20;99.90;;;;;;5084705;28;19947;-57
2022/04/12 01:20:45;;;;;;;;;;;6.10;99.90;;;;;;5091580;28;19923;-57
2022/04/12 01:23:15;;;;;;;;;;;5.90;99.90;;;;;;5089562;28;20332;-57
2022/04/12 01:25:43;;;;;;;;;;;5.80;99.90;;;;;;5082016;28;20015;-57
2022/04/12 01:28:11;;;;;;;;;;;5.80;99.90;;;;;;5083277;28;19925;-57
2022/04/12 01:30:38;;;;;;;;;;;5.60;99.90;;;;;;5077246;28;19924;-57
2022/04/12 01:33:05;;;;;;;;;;;5.60;99.90;;;;;;5085413;28;20378;-57
2022/04/12 01:35:31;;;;;;;;;;;5.60;99.90;;;;;;5083936;28;19930;-57
2022/04/12 01:37:58;;;;;;;;;;;5.60;99.90;;;;;;5086134;28;20585;-57
2022/04/12 01:40:25;;;;;;;;;;;5.60;99.90;;;;;;5080051;28;19925;-57
2022/04/12 01:42:53;;;;;;;;;;;5.50;99.90;;;;;;5088892;28;19977;-57
2022/04/12 01:45:21;;;;;;;;;;;5.40;99.90;;;;;;5086327;28;19924;-57
2022/04/12 01:47:48;;;;;;;;;;;5.50;99.90;;;;;;5081878;28;20421;-57
2022/04/12 01:50:15;;;;;;;;;;;5.50;99.90;;;;;;5087241;28;20379;-57
2022/04/12 01:52:41;;;;;;;;;;;5.50;99.90;;;;;;5083510;28;19936;-58
2022/04/12 01:55:09;;;;;;;;;;;5.50;99.90;;;;;;5083259;28;19978;-57
2022/04/12 01:57:35;;;;;;;;;;;5.40;99.90;;;;;;5081673;28;19978;-57
2022/04/12 02:00:04;;;;;;;;;;;5.40;99.90;;;;;;5080800;28;19970;-57
2022/04/12 02:02:31;;;;;;;;;;;5.40;99.90;;;;;;5079628;28;19989;-58
2022/04/12 02:04:58;;;;;;;;;;;5.30;99.90;;;;;;5086808;28;19927;-58
2022/04/12 02:07:24;;;;;;;;;;;5.40;99.90;;;;;;5085711;28;19978;-57
2022/04/12 02:09:51;;;;;;;;;;;5.80;99.90;;;;;;5082355;28;19986;-57
2022/04/12 02:12:18;;;;;;;;;;;5.80;99.90;;;;;;5081774;28;19924;-57
2022/04/12 02:14:45;;;;;;;;;;;5.60;99.90;;;;;;5087585;28;20335;-57
2022/04/12 02:17:13;;;;;;;;;;;5.40;99.90;;;;;;5087030;28;19978;-58
2022/04/12 02:19:39;;;;;;;;;;;5.50;99.90;;;;;;5082194;28;19925;-59
2022/04/12 02:22:07;;;;;;;;;;;5.30;99.90;;;;;;5080052;28;19969;-58
2022/04/12 02:24:34;;;;;;;;;;;5.10;99.90;;;;;;5086585;28;19931;-57
2022/04/12 02:27:01;;;;;;;;;;;5.20;99.90;;;;;;5086182;28;19928;-57
2022/04/12 02:29:28;;;;;;;;;;;5.40;99.90;;;;;;5090139;28;19981;-58
2022/04/12 02:31:55;;;;;;;;;;;5.20;99.90;;;;;;5074918;28;20301;-58
2022/04/12 02:34:23;;;;;;;;;;;5.10;99.90;;;;;;5090129;28;19977;-58
2022/04/12 02:36:50;;;;;;;;;;;5.20;99.90;;;;;;5088250;28;20483;-58
2022/04/12 02:39:16;;;;;;;;;;;5.20;99.90;;;;;;5085083;28;19924;-58
2022/04/12 02:41:43;;;;;;;;;;;5.00;99.90;;;;;;5085552;28;19993;-58
2022/04/12 02:44:10;;;;;;;;;;;4.90;99.90;;;;;;5085502;28;19924;-58
2022/04/12 02:46:36;;;;;;;;;;;4.80;99.90;;;;;;5084796;28;19932;-57
2022/04/12 02:49:03;;;;;;;;;;;4.70;99.90;;;;;;5089555;28;19931;-58
2022/04/12 02:51:31;;;;;;;;;;;4.60;99.90;;;;;;5094430;28;19951;-59
2022/04/12 02:53:58;;;;;;;;;;;4.60;99.90;;;;;;5092571;28;19928;-59
2022/04/12 02:56:25;;;;;;;;;;;4.60;99.90;;;;;;5096124;28;19977;-58
2022/04/12 02:58:52;;;;;;;;;;;4.60;99.90;;;;;;5092160;28;19924;-59
2022/04/12 03:01:19;;;;;;;;;;;4.50;99.90;;;;;;5101281;28;19924;-57
2022/04/12 03:03:46;;;;;;;;;;;4.60;99.90;;;;;;5091464;28;19924;-58
2022/04/12 03:06:12;;;;;;;;;;;4.50;99.90;;;;;;5089853;28;19932;-59
2022/04/12 03:08:41;;;;;;;;;;;4.40;99.90;;;;;;5083900;28;19978;-58
2022/04/12 03:11:07;;;;;;;;;;;4.50;99.90;;;;;;5084269;28;19928;-58
2022/04/12 03:13:34;;;;;;;;;;;4.50;99.90;;;;;;5085678;28;20033;-57
2022/04/12 03:16:01;;;;;;;;;;;4.40;99.90;;;;;;5085143;28;19939;-58
2022/04/12 03:18:27;;;;;;;;;;;4.40;99.90;;;;;;5085442;28;20390;-58
2022/04/12 03:20:54;;;;;;;;;;;4.30;99.90;;;;;;5086041;28;19924;-58
2022/04/12 03:23:21;;;;;;;;;;;4.30;99.90;;;;;;5088862;28;19924;-58
2022/04/12 03:25:50;;;;;;;;;;;4.30;99.90;;;;;;5086795;28;19928;-57
2022/04/12 03:28:17;;;;;;;;;;;4.40;99.90;;;;;;5086181;28;20337;-58
2022/04/12 03:30:43;;;;;;;;;;;4.40;99.90;;;;;;5085438;28;20451;-57
2022/04/12 03:33:10;;;;;;;;;;;4.50;99.90;;;;;;5082520;28;20319;-58
2022/04/12 03:35:37;;;;;;;;;;;4.50;99.90;;;;;;5089217;28;19928;-59
2022/04/12 03:38:04;;;;;;;;;;;4.50;99.90;;;;;;5091946;28;20009;-58
2022/04/12 03:40:32;;;;;;;;;;;4.50;99.90;;;;;;5086801;28;19924;-61
2022/04/12 03:43:01;;;;;;;;;;;4.40;99.90;;;;;;5083049;28;20412;-57
2022/04/12 03:45:28;;;;;;;;;;;4.50;99.90;;;;;;5088384;28;19936;-57
2022/04/12 03:47:55;;;;;;;;;;;4.40;99.90;;;;;;5087836;28;19974;-58
2022/04/12 03:50:22;;;;;;;;;;;4.40;99.90;;;;;;5089355;28;19989;-58
2022/04/12 03:52:48;;;;;;;;;;;4.40;99.90;;;;;;5088879;28;19924;-57
2022/04/12 03:55:30;;;;;;;;;;;4.40;99.90;;;;;;5085215;28;19924;-57
2022/04/12 03:57:57;;;;;;;;;;;4.40;99.90;;;;;;5085310;28;19924;-57
2022/04/12 04:00:25;;;;;;;;;;;4.40;99.90;;;;;;5089530;28;20290;-58
2022/04/12 04:02:53;;;;;;;;;;;4.40;99.90;;;;;;5085762;28;19982;-58
2022/04/12 04:05:20;;;;;;;;;;;4.60;99.90;;;;;;5087137;28;19928;-57
2022/04/12 04:07:47;;;;;;;;;;;4.40;99.90;;;;;;5081622;28;19924;-56
2022/04/12 04:10:13;;;;;;;;;;;4.40;99.90;;;;;;5087627;28;19924;-56
2022/04/12 04:12:40;;;;;;;;;;;4.30;99.90;;;;;;5084817;28;19932;-57
2022/04/12 04:15:12;;;;;;;;;;;4.20;99.90;;;;;;5082639;28;19939;-56
2022/04/12 04:17:41;;;;;;;;;;;4.10;99.90;;;;;;5084957;28;19938;-57
2022/04/12 04:20:09;;;;;;;;;;;4.30;99.90;;;;;;5087922;28;19981;-56
2022/04/12 04:22:35;;;;;;;;;;;4.50;99.90;;;;;;5082316;28;19985;-56
2022/04/12 04:25:02;;;;;;;;;;;4.40;99.90;;;;;;5079409;28;20006;-57
2022/04/12 04:27:30;;;;;;;;;;;4.30;99.90;;;;;;5093031;28;19977;-56
2022/04/12 04:29:58;;;;;;;;;;;4.40;99.90;;;;;;5085622;28;20657;-56
2022/04/12 04:32:24;;;;;;;;;;;4.60;99.90;;;;;;5082017;28;19924;-58
2022/04/12 04:34:52;;;;;;;;;;;4.80;99.90;;;;;;5087844;28;20440;-57
2022/04/12 04:37:19;;;;;;;;;;;4.60;99.90;;;;;;5081830;28;19932;-56
2022/04/12 04:39:46;;;;;;;;;;;4.50;99.90;;;;;;5093486;28;19931;-56
2022/04/12 04:42:13;;;;;;;;;;;4.40;99.90;;;;;;5093365;28;20263;-57
2022/04/12 04:44:40;;;;;;;;;;;4.40;99.90;;;;;;5084417;28;20409;-56
2022/04/12 04:47:07;;;;;;;;;;;4.40;99.90;;;;;;5082117;28;19928;-58
2022/04/12 04:49:33;;;;;;;;;;;4.30;99.90;;;;;;5084582;28;19928;-56
2022/04/12 04:52:02;;;;;;;;;;;4.30;99.90;;;;;;5085613;28;19928;-56
2022/04/12 04:54:28;;;;;;;;;;;4.20;99.90;;;;;;5079545;28;19924;-57
2022/04/12 04:56:56;;;;;;;;;;;4.40;99.90;;;;;;5082726;28;19928;-58
2022/04/12 04:59:23;;;;;;;;;;;4.30;99.90;;;;;;5085114;28;19928;-59
2022/04/12 05:01:49;;;;;;;;;;;4.40;99.90;;;;;;5083019;28;19924;-57
2022/04/12 05:04:16;;;;;;;;;;;4.50;99.90;;;;;;5079286;28;19946;-57
2022/04/12 05:06:43;;;;;;;;;;;4.70;99.90;;;;;;5081271;28;19987;-57
2022/04/12 05:09:11;;;;;;;;;;;4.80;99.90;;;;;;5079118;28;19931;-58
2022/04/12 05:11:38;;;;;;;;;;;5.00;99.90;;;;;;5073705;28;19928;-57
2022/04/12 05:14:05;;;;;;;;;;;5.10;99.90;;;;;;5074503;28;19986;-57
2022/04/12 05:16:32;;;;;;;;;;;5.40;99.90;;;;;;5080870;28;19978;-57
2022/04/12 05:18:59;;;;;;;;;;;5.80;99.90;;;;;;5082230;28;20390;-57
2022/04/12 05:21:26;;;;;;;;;;;6.00;99.90;;;;;;5083627;28;19992;-57
2022/04/12 05:23:52;;;;;;;;;;;6.30;99.90;;;;;;5082373;28;20001;-57
2022/04/12 05:26:20;;;;;;;;;;;6.50;99.90;;;;;;5084876;28;20017;-59
2022/04/12 05:28:48;;;;;;;;;;;6.70;99.90;;;;;;5089723;28;20022;-59
2022/04/12 05:31:14;;;;;;;;;;;6.90;99.90;;;;;;5080589;28;20387;-57
2022/04/12 05:33:41;;;;;;;;;;;7.00;99.90;;;;;;5086166;28;19924;-58
2022/04/12 05:36:08;;;;;;;;;;;7.30;99.90;;;;;;5086339;28;19928;-57
2022/04/12 05:38:37;;;;;;;;;;;9.00;99.90;;;;;;5086907;28;20351;-58
2022/04/12 05:41:03;;;;;;;;;;;11.50;99.90;;;;;;5089206;28;20372;-60
2022/04/12 05:43:32;;;;;;;;;;;14.40;99.90;;;;;;5082127;28;19931;-58
2022/04/12 05:45:58;;;;;;;;;;;16.50;99.90;;;;;;5076275;28;19981;-59
2022/04/12 05:48:25;;;;;;;;;;;17.60;99.90;;;;;;5078264;28;19985;-58
2022/04/12 05:50:52;;;;;;;;;;;18.40;99.90;;;;;;5076101;28;20294;-59
2022/04/12 05:53:20;;;;;;;;;;;18.00;99.90;;;;;;5077059;28;19925;-58
2022/04/12 05:55:47;;;;;;;;;;;17.30;99.90;;;;;;5082489;28;19925;-58
2022/04/12 05:58:14;;;;;;;;;;;17.40;99.90;;;;;;5072830;28;19924;-60
2022/04/12 06:00:42;;;;;;;;;;;18.40;99.90;;;;;;5074224;28;19933;-59
2022/04/12 06:03:09;;;;;;;;;;;19.70;99.40;;;;;;5074246;28;19932;-59
2022/04/12 06:05:36;;;;;;;;;;;20.90;96.60;;;;;;5073799;28;20023;-59
2022/04/12 06:08:03;;;;;;;;;;;22.00;93.50;;;;;;5081056;28;19924;-60
2022/04/12 06:10:30;;;;;;;;;;;21.80;91.50;;;;;;5072500;28;19935;-58
2022/04/12 06:12:57;;;;;;;;;;;22.60;90.90;;;;;;5071019;28;19928;-58
2022/04/12 06:15:24;;;;;;;;;;;23.10;90.10;;;;;;5074620;28;19932;-58
2022/04/12 06:17:52;;;;;;;;;;;23.10;87.50;;;;;;5076142;28;19925;-59
2022/04/12 06:20:19;;;;;;;;;;;24.20;82.00;;;;;;5075018;28;19929;-58
2022/04/12 06:22:46;;;;;;;;;;;25.20;74.90;;;;;;5074384;28;20002;-59
2022/04/12 06:25:15;;;;;;;;;;;26.00;69.90;;;;;;5081162;28;20309;-59
2022/04/12 06:27:43;;;;;;;;;;;26.00;67.50;;;;;;5078445;28;20018;-59
2022/04/12 06:30:11;;;;;;;;;;;25.60;68.50;;;;;;5073814;28;19936;-59
2022/04/12 06:32:37;;;;;;;;;;;26.30;67.80;;;;;;5080072;28;19978;-60
2022/04/12 06:35:07;;;;;;;;;;;27.30;64.60;;;;;;5071623;28;20306;-59
2022/04/12 06:37:34;;;;;;;;;;;28.10;65.50;;;;;;5074793;28;19924;-60
2022/04/12 06:40:01;;;;;;;;;;;28.20;62.90;;;;;;5073264;28;19978;-59
2022/04/12 06:42:28;;;;;;;;;;;28.50;61.70;;;;;;5083203;28;19986;-59
2022/04/12 06:44:55;;;;;;;;;;;28.80;61.10;;;;;;5078847;28;20001;-59
2022/04/12 06:47:21;;;;;;;;;;;29.60;60.00;;;;;;5078313;28;19928;-60
2022/04/12 06:49:49;;;;;;;;;;;29.60;58.50;;;;;;5088605;28;19928;-60
2022/04/12 06:52:17;;;;;;;;;;;30.00;57.60;;;;;;5081030;28;20096;-60
2022/04/12 06:54:44;;;;;;;;;;;30.20;57.00;;;;;;5089843;28;20008;-60
2022/04/12 06:57:11;;;;;;;;;;;30.10;56.10;;;;;;5089556;28;19981;-60
2022/04/12 06:59:38;;;;;;;;;;;30.00;56.70;;;;;;5089662;28;19924;-60
2022/04/12 07:02:05;;;;;;;;;;;30.00;56.70;;;;;;5089337;28;19993;-60
2022/04/12 07:04:32;;;;;;;;;;;29.70;55.40;;;;;;5090081;28;20006;-60
2022/04/12 07:06:59;;;;;;;;;;;29.70;55.00;;;;;;5090108;28;19924;-60
2022/04/12 07:09:28;;;;;;;;;;;29.80;55.60;;;;;;5090524;28;19924;-60
2022/04/12 07:11:55;;;;;;;;;;;30.00;54.40;;;;;;5089686;28;19930;-60
2022/04/12 07:14:22;;;;;;;;;;;29.50;54.80;;;;;;5094188;28;19977;-60
2022/04/12 07:16:49;;;;;;;;;;;29.60;54.60;;;;;;5090887;28;20024;-60
2022/04/12 07:19:18;;;;;;;;;;;30.30;52.70;;;;;;5089940;28;19924;-61
2022/04/12 07:21:46;;;;;;;;;;;29.90;54.30;;;;;;5090155;28;19981;-61
2022/04/12 07:24:12;;;;;;;;;;;30.30;52.80;;;;;;5090226;28;20378;-60
2022/04/12 07:26:41;;;;;;;;;;;29.90;51.50;;;;;;5094517;28;19928;-60
2022/04/12 07:29:07;;;;;;;;;;;30.10;50.30;;;;;;5094505;28;19924;-60
2022/04/12 07:31:34;;;;;;;;;;;29.70;48.80;;;;;;5093768;28;19969;-61
2022/04/12 07:34:01;;;;;;;;;;;28.80;48.00;;;;;;5093794;28;19924;-60
2022/04/12 07:36:28;;;;;;;;;;;29.50;48.70;;;;;;5094115;28;19924;-61
2022/04/12 07:38:55;;;;;;;;;;;30.00;47.90;;;;;;5094619;28;20005;-60
2022/04/12 07:41:21;;;;;;;;;;;30.50;49.50;;;;;;5093955;28;19924;-60
2022/04/12 07:43:52;;;;;;;;;;;31.40;47.90;;;;;;5094068;28;19924;-61
2022/04/12 07:46:18;;;;;;;;;;;31.70;46.80;;;;;;5093512;28;20385;-60
2022/04/12 07:48:45;;;;;;;;;;;30.70;48.40;;;;;;5094267;28;20381;-60
2022/04/12 07:51:13;;;;;;;;;;;30.90;47.00;;;;;;5089015;28;19962;-59
2022/04/12 07:53:40;;;;;;;;;;;31.30;45.50;;;;;;5076281;28;19940;-60
2022/04/12 07:56:07;;;;;;;;;;;31.30;47.60;;;;;;5082779;28;19943;-60
2022/04/12 07:58:34;;;;;;;;;;;30.10;49.40;;;;;;5073850;28;20352;-61
2022/04/12 08:01:02;;;;;;;;;;;30.50;46.80;;;;;;5073561;28;19924;-60
2022/04/12 08:03:29;;;;;;;;;;;30.90;45.70;;;;;;5074768;28;19932;-61
2022/04/12 08:05:57;;;;;;;;;;;31.50;45.10;;;;;;5082922;28;19928;-60
2022/04/12 08:08:23;;;;;;;;;;;31.80;46.00;;;;;;5074031;28;19993;-59
2022/04/12 08:10:50;;;;;;;;;;;31.60;43.40;;;;;;5073525;28;20320;-60
2022/04/12 08:13:17;;;;;;;;;;;31.30;46.00;;;;;;5077364;28;19924;-60
2022/04/12 08:15:44;;;;;;;;;;;30.80;46.30;;;;;;5077777;28;20426;-60
2022/04/12 08:18:12;;;;;;;;;;;29.60;48.80;;;;;;5088248;28;19924;-59
2022/04/12 08:20:39;;;;;;;;;;;30.50;45.00;;;;;;5091693;28;19943;-61
2022/04/12 08:23:06;;;;;;;;;;;31.00;46.30;;;;;;5091424;28;19977;-61
2022/04/12 08:25:33;;;;;;;;;;;31.40;47.50;;;;;;5083279;28;19936;-60
2022/04/12 08:27:59;;;;;;;;;;;31.70;44.10;;;;;;5078799;28;20014;-60
2022/04/12 08:30:26;;;;;;;;;;;32.10;46.80;;;;;;5087577;28;19982;-61
2022/04/12 08:32:53;;;;;;;;;;;32.80;44.20;;;;;;5083510;28;19970;-61
2022/04/12 08:35:25;;;;;;;;;;;32.90;43.70;;;;;;5092391;28;19932;-61
2022/04/12 08:37:51;;;;;;;;;;;33.20;44.70;;;;;;5090441;28;19928;-61
2022/04/12 08:40:18;;;;;;;;;;;32.30;43.40;;;;;;5092585;28;19924;-59
2022/04/12 08:42:45;;;;;;;;;;;33.00;42.90;;;;;;5091119;28;19934;-60
2022/04/12 08:45:12;;;;;;;;;;;33.60;44.30;;;;;;5092793;28;19977;-60
2022/04/12 08:47:39;;;;;;;;;;;34.00;41.60;;;;;;5086939;28;19982;-59
2022/04/12 08:50:07;;;;;;;;;;;33.90;41.30;;;;;;5086320;28;19970;-62
2022/04/12 08:52:36;;;;;;;;;;;33.30;47.50;;;;;;5083033;28;19991;-61
2022/04/12 08:55:03;;;;;;;;;;;33.80;48.90;;;;;;5077508;28;19932;-59
2022/04/12 08:57:30;;;;;;;;;;;32.90;49.70;;;;;;5090034;28;19924;-60
2022/04/12 08:59:57;;;;;;;;;;;31.20;50.70;;;;;;5079530;28;20455;-59
2022/04/12 09:02:24;;;;;;;;;;;30.20;52.70;;;;;;5071310;28;19933;-60
2022/04/12 09:04:50;;;;;;;;;;;29.90;53.50;;;;;;5082002;28;20065;-59
2022/04/12 09:07:17;;;;;;;;;;;29.80;52.70;;;;;;5089115;28;20447;-59
2022/04/12 09:09:45;;;;;;;;;;;29.30;54.30;;;;;;5081523;28;19932;-60
2022/04/12 09:12:13;;;;;;;;;;;29.50;54.60;;;;;;5071049;28;19932;-59
2022/04/12 09:14:40;;;;;;;;;;;28.80;53.90;;;;;;5081890;28;19985;-59
2022/04/12 09:17:08;;;;;;;;;;;29.00;55.30;;;;;;5077180;28;19979;-59
2022/04/12 09:19:39;;;;;;;;;;;28.60;54.50;;;;;;5074333;28;20321;-59
2022/04/12 09:22:10;;;;;;;;;;;28.70;54.50;;;;;;5075238;28;19974;-58
2022/04/12 09:24:37;;;;;;;;;;;28.30;55.10;;;;;;5071752;28;19989;-59
2022/04/12 09:27:11;;;;;;;;;;;28.40;54.00;;;;;;5084460;28;19924;-60
2022/04/12 09:29:43;;;;;;;;;;;28.50;56.30;;;;;;5092268;28;19924;-60
2022/04/12 09:32:13;;;;;;;;;;;28.60;53.80;;;;;;5113789;22;19948;-51
2022/04/12 09:34:40;;;;;;;;;;;29.20;55.10;;;;;;5085319;28;20305;-51
2022/04/12 09:37:16;;;;;;;;;;;29.80;54.40;;;;;;5092842;28;19978;-51
2022/04/12 09:39:43;;;;;;;;;;;29.10;54.60;;;;;;5092840;28;19924;-52
2022/04/12 09:42:11;;;;;;;;;;;28.00;55.20;;;;;;5084497;28;19928;-51
2022/04/12 09:44:37;;;;;;;;;;;28.90;53.70;;;;;;5084088;28;19974;-52
2022/04/12 09:47:04;;;;;;;;;;;29.30;53.30;;;;;;5088552;28;19932;-51
2022/04/12 09:49:42;;;;;;;;;;;29.40;53.30;;;;;;5087444;28;19924;-51
2022/04/12 09:52:09;;;;;;;;;;;27.90;54.80;;;;;;5087225;28;19928;-51
2022/04/12 09:54:36;;;;;;;;;;;28.40;56.10;;;;;;5085273;28;19932;-51
2022/04/12 09:57:04;;;;;;;;;;;28.10;55.60;;;;;;5083126;28;19929;-51
2022/04/12 09:59:34;;;;;;;;;;;27.70;55.60;;;;;;5082664;28;19954;-50
2022/04/12 10:02:01;;;;;;;;;;;26.10;57.20;;;;;;5081482;28;20529;-51
2022/04/12 10:04:29;;;;;;;;;;;26.50;56.90;;;;;;5083731;28;20351;-51
2022/04/12 10:06:57;;;;;;;;;;;26.90;58.10;;;;;;5113036;28;20347;-51
2022/04/12 10:09:24;;;;;;;;;;;28.00;54.60;;;;;;5092820;28;19977;-52
2022/04/12 10:11:51;;;;;;;;;;;27.80;56.20;;;;;;5091906;28;19954;-50
2022/04/12 10:14:18;;;;;;;;;;;28.10;53.60;;;;;;5092046;28;19924;-52
2022/04/12 10:16:47;;;;;;;;;;;28.80;54.00;;;;;;5092061;28;19977;-51
2022/04/12 10:19:14;;;;;;;;;;;28.40;54.10;;;;;;5092043;28;20349;-52
2022/04/12 10:21:41;;;;;;;;;;;27.60;55.40;;;;;;5091413;28;19978;-50
2022/04/12 10:24:10;;;;;;;;;;;27.80;56.20;;;;;;5092136;28;19978;-51
2022/04/12 10:26:37;;;;;;;;;;;28.20;55.10;;;;;;5091988;28;20313;-52
2022/04/12 10:29:06;;;;;;;;;;;28.40;53.60;;;;;;5092067;28;19988;-53
2022/04/12 10:31:33;;;;;;;;;;;28.40;54.30;;;;;;5092280;28;19924;-52
2022/04/12 10:34:10;;;;;;;;;;;28.40;54.10;;;;;;5089005;28;19932;-52
2022/04/12 10:36:56;;;;;;;;;;;28.50;55.60;;;;;;5081652;28;19928;-51
2022/04/12 10:39:29;;;;;;;;;;;28.70;55.30;;;;;;5089292;28;20355;-52
2022/04/12 10:41:56;;;;;;;;;;;29.20;55.90;;;;;;5090547;28;19932;-52
2022/04/12 10:44:23;;;;;;;;;;;28.80;55.00;;;;;;5091191;28;19982;-53
2022/04/12 10:46:51;;;;;;;;;;;28.90;55.70;;;;;;5081119;28;20293;-53
2022/04/12 10:49:19;;;;;;;;;;;28.50;54.60;;;;;;5091082;28;20391;-52
2022/04/12 10:51:47;;;;;;;;;;;27.90;53.30;;;;;;5092035;28;19969;-51
2022/04/12 10:54:29;;;;;;;;;;;27.10;55.20;;;;;;5091921;28;19934;-51
2022/04/12 10:57:14;;;;;;;;;;;25.10;59.40;;;;;;5090066;28;20019;-51
2022/04/12 10:59:41;;;;;;;;;;;24.40;60.00;;;;;;5081807;28;19924;-52
2022/04/12 11:02:11;;;;;;;;;;;23.50;59.70;;;;;;5082242;28;19924;-51
2022/04/12 11:04:39;;;;;;;;;;;23.40;60.60;;;;;;5090587;28;19932;-50
2022/04/12 11:07:07;;;;;;;;;;;23.10;59.40;;;;;;5082141;28;19928;-51
2022/04/12 11:09:34;;;;;;;;;;;23.00;61.70;;;;;;5079298;28;20339;-49
2022/04/12 11:12:03;;;;;;;;;;;23.00;59.00;;;;;;5091026;28;19977;-50
2022/04/12 11:14:32;;;;;;;;;;;22.30;60.60;;;;;;5091554;28;20401;-50
2022/04/12 11:17:00;;;;;;;;;;;22.10;66.40;;;;;;5091633;28;20301;-50
2022/04/12 11:19:27;;;;;;;;;;;21.70;63.30;;;;;;5095559;28;19928;-50
2022/04/12 11:22:00;;;;;;;;;;;21.80;69.00;;;;;;5087996;28;19928;-51
2022/04/12 11:24:27;;;;;;;;;;;21.70;67.70;;;;;;5091755;28;20494;-49
2022/04/12 11:27:01;;;;;;;;;;;21.70;66.60;;;;;;5091735;28;20798;-50
2022/04/12 11:29:29;;;;;;;;;;;21.50;66.70;;;;;;5091634;28;19931;-49
2022/04/12 11:31:56;;;;;;;;;;;21.60;66.00;;;;;;5091543;28;19928;-49
2022/04/12 11:34:24;;;;;;;;;;;21.50;66.30;;;;;;5091650;28;20344;-50
2022/04/12 11:36:51;;;;;;;;;;;21.40;68.80;;;;;;5091603;28;19935;-50
2022/04/12 11:39:20;;;;;;;;;;;21.00;69.20;;;;;;5083303;28;20340;-50
2022/04/12 11:41:47;;;;;;;;;;;20.50;70.20;;;;;;5091729;28;19924;-51
2022/04/12 11:44:14;;;;;;;;;;;20.30;68.90;;;;;;5091221;28;20455;-49
2022/04/12 11:46:41;;;;;;;;;;;20.60;73.60;;;;;;5091509;28;20385;-49
2022/04/12 11:49:08;;;;;;;;;;;20.20;70.00;;;;;;5089993;28;19939;-51
2022/04/12 11:51:39;;;;;;;;;;;20.30;71.70;;;;;;5089884;28;19932;-48
2022/04/12 11:54:22;;;;;;;;;;;20.70;68.90;;;;;;5091178;28;19978;-49
2022/04/12 11:56:54;;;;;;;;;;;20.70;69.50;;;;;;5100098;28;20300;-49
2022/04/12 11:59:21;;;;;;;;;;;20.80;68.60;;;;;;5091084;28;19932;-49
2022/04/12 12:01:48;;;;;;;;;;;20.70;65.80;;;;;;5086556;28;19978;-48
2022/04/12 12:04:15;;;;;;;;;;;20.80;67.20;;;;;;5094766;28;19974;-48
2022/04/12 12:06:53;;;;;;;;;;;20.90;68.60;;;;;;5094706;28;19981;-47
2022/04/12 12:09:19;;;;;;;;;;;21.10;67.30;;;;;;5089991;28;19940;-47
2022/04/12 12:11:47;;;;;;;;;;;20.90;64.90;;;;;;5092156;28;19924;-47
2022/04/12 12:14:16;;;;;;;;;;;21.30;67.10;;;;;;5084696;28;19924;-47
2022/04/12 12:16:42;;;;;;;;;;;21.50;69.20;;;;;;5094215;28;20363;-47
2022/04/12 12:19:14;;;;;;;;;;;21.60;65.20;;;;;;5093390;28;20382;-48
2022/04/12 12:21:44;;;;;;;;;;;21.60;64.50;;;;;;5087142;28;19982;-47
2022/04/12 12:24:11;;;;;;;;;;;21.40;69.00;;;;;;5089241;28;20371;-48
2022/04/12 12:26:37;;;;;;;;;;;21.10;70.10;;;;;;5094312;28;19924;-47
2022/04/12 12:29:08;;;;;;;;;;;20.80;71.70;;;;;;5094281;28;20783;-47
2022/04/12 12:31:43;;;;;;;;;;;20.10;71.70;;;;;;5094360;28;19988;-47
2022/04/12 12:34:10;;;;;;;;;;;20.20;71.60;;;;;;5093194;28;19924;-48
2022/04/12 12:36:36;;;;;;;;;;;20.10;72.00;;;;;;5090344;28;19966;-47
2022/04/12 12:39:06;;;;;;;;;;;20.20;72.20;;;;;;5093586;28;19924;-48
2022/04/12 12:41:33;;;;;;;;;;;20.30;73.80;;;;;;5094229;28;20347;-48
2022/04/12 12:44:02;;;;;;;;;;;20.70;76.10;;;;;;5094345;28;19928;-49
2022/04/12 12:46:30;;;;;;;;;;;21.20;76.30;;;;;;5094034;28;19931;-49
2022/04/12 12:49:09;;;;;;;;;;;21.40;73.10;;;;;;5093961;28;20463;-48
2022/04/12 12:51:36;;;;;;;;;;;21.60;74.00;;;;;;5093599;28;19974;-49
2022/04/12 12:54:03;;;;;;;;;;;21.70;71.60;;;;;;5093371;28;20370;-48
2022/04/12 12:56:33;;;;;;;;;;;21.90;72.50;;;;;;5083386;28;20435;-48
2022/04/12 12:59:13;;;;;;;;;;;22.10;72.50;;;;;;5092598;28;20006;-48
2022/04/12 13:01:43;;;;;;;;;;;21.90;72.90;;;;;;5074558;28;19925;-49
2022/04/12 13:04:20;;;;;;;;;;;22.00;73.10;;;;;;5093189;28;19924;-48
2022/04/12 13:07:01;;;;;;;;;;;22.10;70.90;;;;;;5093228;28;19930;-47
2022/04/12 13:09:27;;;;;;;;;;;21.70;72.20;;;;;;5093359;28;20306;-48
2022/04/12 13:11:54;;;;;;;;;;;21.70;72.90;;;;;;5092834;28;19924;-48
2022/04/12 13:14:21;;;;;;;;;;;21.40;71.80;;;;;;5093589;28;19985;-48
2022/04/12 13:16:48;;;;;;;;;;;20.70;72.00;;;;;;5086356;28;19928;-47
2022/04/12 13:19:14;;;;;;;;;;;20.80;73.10;;;;;;5080337;28;19997;-48
2022/04/12 13:21:43;;;;;;;;;;;20.80;72.20;;;;;;5089266;28;19928;-48
2022/04/12 13:24:11;;;;;;;;;;;20.90;68.90;;;;;;5095271;28;20547;-49
2022/04/12 13:26:38;;;;;;;;;;;20.80;73.30;;;;;;5093540;28;19931;-48
2022/04/12 13:29:04;;;;;;;;;;;21.00;75.20;;;;;;5092701;28;19978;-48
2022/04/12 13:31:31;;;;;;;;;;;21.20;72.90;;;;;;5092713;28;19977;-48
2022/04/12 13:33:58;;;;;;;;;;;21.60;74.70;;;;;;5093442;28;19924;-48
2022/04/12 13:36:25;;;;;;;;;;;21.90;73.70;;;;;;5093257;28;19924;-50
2022/04/12 13:38:53;;;;;;;;;;;22.10;72.50;;;;;;5093180;28;19970;-50
2022/04/12 13:41:19;;;;;;;;;;;22.00;73.30;;;;;;5092678;28;19928;-50
2022/04/12 13:43:46;;;;;;;;;;;21.80;74.60;;;;;;5092842;28;20341;-49
2022/04/12 13:46:13;;;;;;;;;;;22.20;76.80;;;;;;5092922;28;20390;-49
2022/04/12 13:48:41;;;;;;;;;;;22.00;76.90;;;;;;5093071;28;19928;-48
2022/04/12 13:51:08;;;;;;;;;;;21.80;78.20;;;;;;5092736;28;19930;-49
2022/04/12 13:53:35;;;;;;;;;;;21.20;78.80;;;;;;5089646;28;19935;-49
2022/04/12 13:56:03;;;;;;;;;;;21.40;78.10;;;;;;5092511;28;19924;-49
2022/04/12 13:58:30;;;;;;;;;;;21.60;78.70;;;;;;5092670;28;19924;-49
2022/04/12 14:00:57;;;;;;;;;;;21.50;78.50;;;;;;5092851;28;19928;-49
2022/04/12 14:03:25;;;;;;;;;;;21.60;79.10;;;;;;5092299;28;20010;-49
2022/04/12 14:05:51;;;;;;;;;;;21.60;79.00;;;;;;5089029;28;19924;-49
2022/04/12 14:08:18;;;;;;;;;;;21.50;80.20;;;;;;5090817;28;19928;-48
2022/04/12 14:10:45;;;;;;;;;;;21.50;79.00;;;;;;5075238;28;19978;-49
2022/04/12 14:13:13;;;;;;;;;;;21.30;80.00;;;;;;5076052;28;20007;-48
2022/04/12 14:15:40;;;;;;;;;;;21.40;80.10;;;;;;5092556;28;19928;-49
2022/04/12 14:18:07;;;;;;;;;;;21.50;80.20;;;;;;5092771;28;19924;-48
2022/04/12 14:20:33;;;;;;;;;;;21.60;79.90;;;;;;5090124;28;19924;-49
2022/04/12 14:23:00;;;;;;;;;;;21.60;80.20;;;;;;5079560;28;20389;-49
2022/04/12 14:25:27;;;;;;;;;;;21.50;79.70;;;;;;5085068;28;19973;-49